Station Historical Data
Daily Summary for May 15, 2017 Units:  English    Metric   Both
« Previous Day
Next Day »
Daily Weekly Monthly Yearly Custom
  High: Low: Average:
Temperature: 62.3 °F 42.9 °F 52.5 °F
Dew Point: 47.8 °F 38.1 °F 42.1 °F
Humidity: 83% 51% 69%
Wind Speed: 17.0mph 0.0mph 4.5mph
Wind Gust: 23.0mph - -
Wind- - West
Pressure: 30.04 in 29.90 in -
Precipitation: 0.00 in    
Historical Graphs
 
 
Tabular Data for May 15, 2017
Time Temperature Dew Point Pressure Wind Wind Speed Wind Gust Humidity Rainfall Rate (Hourly)
00:04 49.9 °F 42.3 °F 29.90 in WNW 1.0 mph 7.0 mph 75% 0.00 in
00:09 49.9 °F 42.3 °F 29.90 in WNW 3.0 mph 7.0 mph 75% 0.00 in
00:14 49.9 °F 42.3 °F 29.90 in WNW 2.0 mph 6.0 mph 75% 0.00 in
00:19 49.9 °F 41.9 °F 29.90 in NW 3.0 mph 6.0 mph 74% 0.00 in
00:24 49.9 °F 41.9 °F 29.90 in NW 3.0 mph 6.0 mph 74% 0.00 in
00:29 49.9 °F 41.9 °F 29.90 in NW 2.0 mph 6.0 mph 74% 0.00 in
00:34 49.9 °F 41.9 °F 29.90 in NW 1.0 mph 5.0 mph 74% 0.00 in
00:39 49.9 °F 41.9 °F 29.90 in NW 1.0 mph 6.0 mph 74% 0.00 in
00:44 50.0 °F 42.0 °F 29.90 in WNW 3.0 mph 6.0 mph 74% 0.00 in
00:49 50.1 °F 41.8 °F 29.90 in NW 3.0 mph 5.0 mph 73% 0.00 in
00:54 50.2 °F 41.9 °F 29.90 in NW 2.0 mph 7.0 mph 73% 0.00 in
00:59 50.2 °F 41.5 °F 29.90 in NNW 3.0 mph 8.0 mph 72% 0.00 in
01:04 50.2 °F 41.5 °F 29.90 in NW 2.0 mph 5.0 mph 72% 0.00 in
01:09 50.2 °F 41.5 °F 29.90 in NW 2.0 mph 6.0 mph 72% 0.00 in
01:14 50.3 °F 41.6 °F 29.90 in WNW 3.0 mph 6.0 mph 72% 0.00 in
01:19 50.3 °F 41.6 °F 29.90 in WNW 3.0 mph 7.0 mph 72% 0.00 in
01:24 50.3 °F 41.6 °F 29.90 in NW 3.0 mph 8.0 mph 72% 0.00 in
01:29 50.1 °F 41.4 °F 29.90 in West 2.0 mph 8.0 mph 72% 0.00 in
01:34 50.1 °F 41.8 °F 29.90 in WNW 4.0 mph 8.0 mph 73% 0.00 in
01:39 49.9 °F 41.6 °F 29.90 in WNW 4.0 mph 8.0 mph 73% 0.00 in
01:44 49.7 °F 41.4 °F 29.90 in WNW 3.0 mph 6.0 mph 73% 0.00 in
01:49 49.6 °F 41.7 °F 29.90 in WNW 2.0 mph 5.0 mph 74% 0.00 in
01:54 49.3 °F 41.4 °F 29.90 in WNW 2.0 mph 6.0 mph 74% 0.00 in
01:59 49.0 °F 41.4 °F 29.90 in West 4.0 mph 6.0 mph 75% 0.00 in
02:04 48.7 °F 41.1 °F 29.90 in West 3.0 mph 6.0 mph 75% 0.00 in
02:09 48.3 °F 41.1 °F 29.90 in West 3.0 mph 5.0 mph 76% 0.00 in
02:14 48.0 °F 41.1 °F 29.91 in West 3.0 mph 5.0 mph 77% 0.00 in
02:19 47.7 °F 40.8 °F 29.91 in West 3.0 mph 7.0 mph 77% 0.00 in
02:24 47.4 °F 40.6 °F 29.91 in WNW 5.0 mph 6.0 mph 77% 0.00 in
02:29 47.2 °F 40.4 °F 29.91 in West 2.0 mph 5.0 mph 77% 0.00 in
02:34 47.0 °F 40.5 °F 29.91 in West 3.0 mph 7.0 mph 78% 0.00 in
02:39 46.9 °F 40.4 °F 29.91 in West 3.0 mph 7.0 mph 78% 0.00 in
02:44 46.7 °F 40.2 °F 29.91 in West 4.0 mph 7.0 mph 78% 0.00 in
02:49 46.6 °F 40.4 °F 29.91 in WNW 3.0 mph 8.0 mph 79% 0.00 in
02:54 46.5 °F 40.3 °F 29.91 in WNW 3.0 mph 5.0 mph 79% 0.00 in
02:59 46.3 °F 40.1 °F 29.91 in West 2.0 mph 6.0 mph 79% 0.00 in
03:04 46.1 °F 39.9 °F 29.91 in West 3.0 mph 6.0 mph 79% 0.00 in
03:09 46.0 °F 39.9 °F 29.91 in WNW 3.0 mph 6.0 mph 79% 0.00 in
03:14 45.9 °F 39.8 °F 29.92 in WNW 3.0 mph 5.0 mph 79% 0.00 in
03:19 45.7 °F 39.6 °F 29.92 in West 2.0 mph 6.0 mph 79% 0.00 in
03:24 45.5 °F 39.4 °F 29.92 in West 3.0 mph 4.0 mph 79% 0.00 in
03:29 45.4 °F 39.6 °F 29.92 in West 4.0 mph 5.0 mph 80% 0.00 in
03:34 45.4 °F 39.6 °F 29.92 in West 2.0 mph 5.0 mph 80% 0.00 in
03:39 45.2 °F 39.4 °F 29.92 in West 2.0 mph 5.0 mph 80% 0.00 in
03:44 45.1 °F 39.3 °F 29.92 in West 2.0 mph 4.0 mph 80% 0.00 in
03:49 44.9 °F 39.1 °F 29.92 in West 2.0 mph 4.0 mph 80% 0.00 in
03:54 44.9 °F 39.4 °F 29.92 in WNW 3.0 mph 5.0 mph 81% 0.00 in
03:59 44.8 °F 39.0 °F 29.92 in West 2.0 mph 5.0 mph 80% 0.00 in
04:04 44.7 °F 38.9 °F 29.92 in West 1.0 mph 3.0 mph 80% 0.00 in
04:09 44.6 °F 38.8 °F 29.92 in West 2.0 mph 3.0 mph 80% 0.00 in
04:14 44.4 °F 38.9 °F 29.92 in West 1.0 mph 4.0 mph 81% 0.00 in
04:19 44.4 °F 38.9 °F 29.92 in West 1.0 mph 4.0 mph 81% 0.00 in
04:24 44.4 °F 38.9 °F 29.92 in West 2.0 mph 5.0 mph 81% 0.00 in
04:29 44.4 °F 38.9 °F 29.92 in West 2.0 mph 5.0 mph 81% 0.00 in
04:34 44.3 °F 38.8 °F 29.92 in West 2.0 mph 5.0 mph 81% 0.00 in
04:39 44.5 °F 39.0 °F 29.92 in West 2.0 mph 5.0 mph 81% 0.00 in
04:44 44.5 °F 39.0 °F 29.92 in West 2.0 mph 7.0 mph 81% 0.00 in
04:49 44.3 °F 38.8 °F 29.92 in West 2.0 mph 7.0 mph 81% 0.00 in
04:54 44.2 °F 38.7 °F 29.92 in WNW 2.0 mph 6.0 mph 81% 0.00 in
04:59 44.0 °F 38.5 °F 29.93 in WNW 2.0 mph 6.0 mph 81% 0.00 in
05:04 43.8 °F 38.3 °F 29.93 in WNW 2.0 mph 5.0 mph 81% 0.00 in
05:09 43.5 °F 38.4 °F 29.93 in WNW 2.0 mph 4.0 mph 82% 0.00 in
05:14 43.4 °F 38.3 °F 29.93 in WNW 4.0 mph 4.0 mph 82% 0.00 in
05:19 43.4 °F 38.3 °F 29.93 in West 3.0 mph 5.0 mph 82% 0.00 in
05:24 43.3 °F 38.2 °F 29.93 in WNW 2.0 mph 4.0 mph 82% 0.00 in
05:29 43.2 °F 38.4 °F 29.94 in West 2.0 mph 5.0 mph 83% 0.00 in
05:34 43.1 °F 38.3 °F 29.94 in West 2.0 mph 5.0 mph 83% 0.00 in
05:39 43.0 °F 38.2 °F 29.94 in WNW 3.0 mph 4.0 mph 83% 0.00 in
05:44 42.9 °F 38.1 °F 29.94 in West 3.0 mph 5.0 mph 83% 0.00 in
05:49 42.9 °F 38.1 °F 29.94 in West 3.0 mph 5.0 mph 83% 0.00 in
05:54 42.9 °F 38.1 °F 29.94 in WNW 3.0 mph 4.0 mph 83% 0.00 in
05:59 42.9 °F 38.1 °F 29.94 in WNW 2.0 mph 4.0 mph 83% 0.00 in
06:04 42.9 °F 38.1 °F 29.95 in West 2.0 mph 5.0 mph 83% 0.00 in
06:09 42.9 °F 38.1 °F 29.95 in West 2.0 mph 5.0 mph 83% 0.00 in
06:14 42.9 °F 38.1 °F 29.95 in West 1.0 mph 4.0 mph 83% 0.00 in
06:19 43.0 °F 38.2 °F 29.95 in West 2.0 mph 5.0 mph 83% 0.00 in
06:24 43.3 °F 38.5 °F 29.95 in West 2.0 mph 4.0 mph 83% 0.00 in
06:29 43.6 °F 38.5 °F 29.95 in West 1.0 mph 4.0 mph 82% 0.00 in
06:34 43.7 °F 38.6 °F 29.96 in Calm     82% 0.00 in
06:39 44.1 °F 39.0 °F 29.96 in WSW 2.0 mph 3.0 mph 82% 0.00 in
06:44 44.3 °F 38.8 °F 29.96 in WNW 2.0 mph 5.0 mph 81% 0.00 in
06:49 44.6 °F 39.1 °F 29.97 in Calm   3.0 mph 81% 0.00 in
06:54 44.9 °F 39.4 °F 29.96 in West 1.0 mph 4.0 mph 81% 0.00 in
06:59 45.3 °F 39.5 °F 29.96 in WNW 2.0 mph 7.0 mph 80% 0.00 in
07:04 45.6 °F 39.5 °F 29.97 in WNW 3.0 mph 7.0 mph 79% 0.00 in
07:09 45.9 °F 39.8 °F 29.97 in WNW 2.0 mph 6.0 mph 79% 0.00 in
07:14 46.2 °F 39.7 °F 29.97 in NW 3.0 mph 7.0 mph 78% 0.00 in
07:19 46.7 °F 39.9 °F 29.97 in NW 2.0 mph 7.0 mph 77% 0.00 in
07:24 47.1 °F 39.9 °F 29.97 in WNW 1.0 mph 7.0 mph 76% 0.00 in
07:29 47.4 °F 39.9 °F 29.97 in NW 3.0 mph 7.0 mph 75% 0.00 in
07:34 47.7 °F 40.2 °F 29.97 in West 2.0 mph 7.0 mph 75% 0.00 in
07:39 48.1 °F 40.2 °F 29.97 in NW 4.0 mph 6.0 mph 74% 0.00 in
07:44 48.6 °F 40.0 °F 29.97 in NNW 3.0 mph 9.0 mph 72% 0.00 in
07:49 49.1 °F 40.1 °F 29.97 in North 2.0 mph 9.0 mph 71% 0.00 in
07:54 49.5 °F 40.5 °F 29.98 in WNW 2.0 mph 11.0 mph 71% 0.00 in
07:59 50.0 °F 41.0 °F 29.98 in NW 4.0 mph 11.0 mph 71% 0.00 in
08:04 50.3 °F 40.5 °F 29.98 in WNW 3.0 mph 10.0 mph 69% 0.00 in
08:09 50.6 °F 40.8 °F 29.98 in NNW 5.0 mph 11.0 mph 69% 0.00 in
08:14 50.8 °F 41.4 °F 29.98 in NNW 4.0 mph 11.0 mph 70% 0.00 in
08:19 51.5 °F 41.3 °F 29.99 in NNW 3.0 mph 11.0 mph 68% 0.00 in
08:24 51.5 °F 40.9 °F 29.99 in WNW 4.0 mph 13.0 mph 67% 0.00 in
08:29 51.5 °F 40.9 °F 29.99 in NW 5.0 mph 13.0 mph 67% 0.00 in
08:34 51.8 °F 41.2 °F 29.99 in NW 5.0 mph 11.0 mph 67% 0.00 in
08:39 51.8 °F 40.8 °F 29.98 in NNW 4.0 mph 9.0 mph 66% 0.00 in
08:44 52.3 °F 41.3 °F 29.98 in NW 9.0 mph 11.0 mph 66% 0.00 in
08:49 52.3 °F 41.3 °F 29.98 in WNW 2.0 mph 10.0 mph 66% 0.00 in
08:54 52.9 °F 41.4 °F 29.99 in NW 5.0 mph 10.0 mph 65% 0.00 in
08:59 53.2 °F 42.1 °F 29.98 in NNW 10.0 mph 10.0 mph 66% 0.00 in
09:04 53.3 °F 41.8 °F 29.99 in WNW 4.0 mph 11.0 mph 65% 0.00 in
09:09 53.5 °F 42.0 °F 29.98 in NW 4.0 mph 12.0 mph 65% 0.00 in
09:14 53.5 °F 42.0 °F 29.98 in WNW 3.0 mph 10.0 mph 65% 0.00 in
09:19 54.1 °F 43.4 °F 29.99 in WNW 2.0 mph 8.0 mph 67% 0.00 in
09:24 54.7 °F 42.3 °F 29.98 in NW 3.0 mph 8.0 mph 63% 0.00 in
09:29 54.6 °F 42.7 °F 29.98 in WNW 4.0 mph 9.0 mph 64% 0.00 in
09:34 54.5 °F 41.7 °F 29.98 in West 6.0 mph 11.0 mph 62% 0.00 in
09:39 54.5 °F 42.2 °F 29.98 in WNW 5.0 mph 11.0 mph 63% 0.00 in
09:44 54.8 °F 42.9 °F 29.98 in WNW 5.0 mph 9.0 mph 64% 0.00 in
09:49 54.8 °F 42.0 °F 29.98 in NNW 4.0 mph 12.0 mph 62% 0.00 in
09:54 54.7 °F 42.3 °F 29.98 in NW 5.0 mph 12.0 mph 63% 0.00 in
09:59 55.1 °F 42.3 °F 29.98 in WNW 5.0 mph 10.0 mph 62% 0.00 in
10:04 55.8 °F 43.8 °F 29.99 in WNW 6.0 mph 7.0 mph 64% 0.00 in
10:09 55.4 °F 42.2 °F 29.99 in WNW 4.0 mph 9.0 mph 61% 0.00 in
10:14 55.6 °F 42.4 °F 29.99 in NW 6.0 mph 10.0 mph 61% 0.00 in
10:19 55.5 °F 42.7 °F 29.99 in NW 11.0 mph 11.0 mph 62% 0.00 in
10:24 56.4 °F 43.5 °F 29.99 in NW 5.0 mph 11.0 mph 62% 0.00 in
10:29 56.7 °F 42.5 °F 30.00 in NW 5.0 mph 13.0 mph 59% 0.00 in
10:34 57.2 °F 43.9 °F 29.99 in West 8.0 mph 8.0 mph 61% 0.00 in
10:39 56.9 °F 43.2 °F 30.00 in WNW 7.0 mph 11.0 mph 60% 0.00 in
10:44 57.3 °F 44.0 °F 29.99 in North 6.0 mph 11.0 mph 61% 0.00 in
10:49 57.5 °F 43.3 °F 29.99 in NW 5.0 mph 10.0 mph 59% 0.00 in
10:54 57.9 °F 43.2 °F 29.99 in NW 5.0 mph 10.0 mph 58% 0.00 in
10:59 58.2 °F 43.5 °F 29.99 in NW 5.0 mph 10.0 mph 58% 0.00 in
11:04 58.6 °F 44.3 °F 30.00 in NW 5.0 mph 13.0 mph 59% 0.00 in
11:09 59.3 °F 44.5 °F 30.00 in WNW 5.0 mph 13.0 mph 58% 0.00 in
11:14 59.4 °F 43.7 °F 30.00 in WNW 5.0 mph 10.0 mph 56% 0.00 in
11:19 59.9 °F 44.2 °F 30.00 in WNW 3.0 mph 10.0 mph 56% 0.00 in
11:24 60.3 °F 44.5 °F 30.00 in WNW 7.0 mph 13.0 mph 56% 0.00 in
11:29 60.3 °F 44.5 °F 30.00 in SW 8.0 mph 12.0 mph 56% 0.00 in
11:34 60.3 °F 44.5 °F 30.00 in NW 6.0 mph 13.0 mph 56% 0.00 in
11:39 60.5 °F 44.2 °F 30.00 in NNW 6.0 mph 13.0 mph 55% 0.00 in
11:44 60.5 °F 44.2 °F 30.00 in WNW 7.0 mph 13.0 mph 55% 0.00 in
11:49 60.6 °F 44.3 °F 30.00 in West 6.0 mph 14.0 mph 55% 0.00 in
11:54 60.7 °F 44.9 °F 30.00 in WNW 7.0 mph 14.0 mph 56% 0.00 in
11:59 60.6 °F 43.9 °F 30.00 in WNW 7.0 mph 13.0 mph 54% 0.00 in
12:04 60.9 °F 44.1 °F 30.00 in NW 6.0 mph 12.0 mph 54% 0.00 in
12:09 60.9 °F 44.6 °F 29.99 in NW 5.0 mph 12.0 mph 55% 0.00 in
12:19 61.8 °F 45.9 °F 29.99 in NNW 3.0 mph 11.0 mph 56% 0.00 in
12:24 62.3 °F 45.4 °F 29.99 in WNW 6.0 mph 8.0 mph 54% 0.00 in
12:29 62.3 °F 45.9 °F 30.00 in WNW 5.0 mph 10.0 mph 55% 0.00 in
12:34 62.0 °F 44.7 °F 30.00 in WNW 8.0 mph 13.0 mph 53% 0.00 in
12:39 61.6 °F 45.3 °F 29.99 in North 4.0 mph 14.0 mph 55% 0.00 in
12:44 62.1 °F 46.2 °F 29.99 in West 5.0 mph 11.0 mph 56% 0.00 in
12:49 62.2 °F 44.3 °F 29.99 in WNW 6.0 mph 13.0 mph 52% 0.00 in
12:54 62.1 °F 43.7 °F 29.99 in WNW 6.0 mph 13.0 mph 51% 0.00 in
12:59 61.9 °F 45.5 °F 30.00 in WNW 6.0 mph 15.0 mph 55% 0.00 in
13:04 61.4 °F 47.8 °F 30.00 in West 4.0 mph 9.0 mph 61% 0.00 in
13:09 61.5 °F 46.6 °F 29.99 in WSW 6.0 mph 12.0 mph 58% 0.00 in
13:14 61.6 °F 47.6 °F 30.00 in WSW 7.0 mph 10.0 mph 60% 0.00 in
13:19 61.8 °F 46.4 °F 30.00 in WSW 6.0 mph 12.0 mph 57% 0.00 in
13:24 60.5 °F 46.1 °F 30.00 in WSW 6.0 mph 15.0 mph 59% 0.00 in
13:29 59.8 °F 46.7 °F 30.00 in SW 7.0 mph 15.0 mph 62% 0.00 in
13:34 59.4 °F 45.9 °F 30.00 in SW 7.0 mph 15.0 mph 61% 0.00 in
13:39 59.2 °F 47.0 °F 30.00 in WSW 8.0 mph 14.0 mph 64% 0.00 in
13:44 59.5 °F 46.5 °F 30.00 in WSW 10.0 mph 14.0 mph 62% 0.00 in
13:49 59.7 °F 46.7 °F 30.00 in SW 5.0 mph 15.0 mph 62% 0.00 in
13:54 59.9 °F 46.8 °F 30.00 in WSW 7.0 mph 15.0 mph 62% 0.00 in
13:59 59.9 °F 46.4 °F 30.00 in WSW 7.0 mph 15.0 mph 61% 0.00 in
14:04 59.6 °F 44.8 °F 30.00 in South 5.0 mph 19.0 mph 58% 0.00 in
14:09 59.2 °F 44.9 °F 30.00 in SSE 8.0 mph 16.0 mph 59% 0.00 in
14:14 58.9 °F 45.5 °F 30.00 in WSW 5.0 mph 16.0 mph 61% 0.00 in
14:19 59.1 °F 45.7 °F 30.00 in WSW 9.0 mph 13.0 mph 61% 0.00 in
14:24 59.4 °F 45.1 °F 30.00 in WSW 8.0 mph 18.0 mph 59% 0.00 in
14:29 59.3 °F 45.4 °F 30.00 in WSW 9.0 mph 18.0 mph 60% 0.00 in
14:34 59.6 °F 47.0 °F 30.00 in WSW 9.0 mph 17.0 mph 63% 0.00 in
14:39 60.0 °F 46.1 °F 30.00 in West 10.0 mph 15.0 mph 60% 0.00 in
14:44 60.1 °F 45.3 °F 30.00 in SW 8.0 mph 16.0 mph 58% 0.00 in
14:49 60.1 °F 44.3 °F 30.00 in West 6.0 mph 20.0 mph 56% 0.00 in
14:54 59.6 °F 43.9 °F 30.00 in WSW 9.0 mph 20.0 mph 56% 0.00 in
14:59 59.3 °F 44.1 °F 30.00 in SW 17.0 mph 18.0 mph 57% 0.00 in
15:04 59.2 °F 44.4 °F 30.00 in WSW 8.0 mph 20.0 mph 58% 0.00 in
15:09 59.2 °F 44.0 °F 30.01 in WSW 8.0 mph 19.0 mph 57% 0.00 in
15:14 59.1 °F 43.4 °F 30.00 in West 8.0 mph 20.0 mph 56% 0.00 in
15:19 58.9 °F 43.2 °F 30.00 in SSW 7.0 mph 18.0 mph 56% 0.00 in
15:24 59.0 °F 44.7 °F 30.00 in WSW 9.0 mph 18.0 mph 59% 0.00 in
15:29 59.4 °F 44.2 °F 30.00 in WSW 8.0 mph 18.0 mph 57% 0.00 in
15:34 59.3 °F 44.1 °F 30.00 in WSW 8.0 mph 18.0 mph 57% 0.00 in
15:39 59.1 °F 43.9 °F 30.00 in WSW 9.0 mph 18.0 mph 57% 0.00 in
15:44 59.0 °F 43.8 °F 30.00 in WSW 8.0 mph 17.0 mph 57% 0.00 in
15:49 58.8 °F 44.0 °F 30.00 in WSW 8.0 mph 16.0 mph 58% 0.00 in
15:54 59.0 °F 44.2 °F 30.00 in WNW 10.0 mph 16.0 mph 58% 0.00 in
15:59 58.7 °F 43.0 °F 30.00 in SW 7.0 mph 23.0 mph 56% 0.00 in
16:04 58.3 °F 43.6 °F 30.00 in West 5.0 mph 16.0 mph 58% 0.00 in
16:09 58.2 °F 44.4 °F 30.00 in SW 6.0 mph 17.0 mph 60% 0.00 in
16:14 58.3 °F 44.0 °F 30.00 in SW 11.0 mph 18.0 mph 59% 0.00 in
16:19 58.4 °F 44.1 °F 30.00 in WSW 8.0 mph 18.0 mph 59% 0.00 in
16:24 58.4 °F 44.6 °F 30.00 in WSW 8.0 mph 18.0 mph 60% 0.00 in
16:29 58.4 °F 44.1 °F 30.00 in WSW 8.0 mph 15.0 mph 59% 0.00 in
16:34 58.3 °F 44.5 °F 30.00 in WSW 8.0 mph 21.0 mph 60% 0.00 in
16:39 58.3 °F 44.0 °F 30.01 in WSW 8.0 mph 21.0 mph 59% 0.00 in
16:44 58.1 °F 44.3 °F 30.01 in West 5.0 mph 18.0 mph 60% 0.00 in
16:49 58.1 °F 43.8 °F 30.00 in SW 7.0 mph 14.0 mph 59% 0.00 in
16:54 58.2 °F 43.9 °F 30.00 in WSW 6.0 mph 11.0 mph 59% 0.00 in
16:59 58.5 °F 44.7 °F 30.01 in WNW 8.0 mph 14.0 mph 60% 0.00 in
17:04 58.3 °F 43.6 °F 30.00 in SSW 5.0 mph 14.0 mph 58% 0.00 in
17:09 58.3 °F 44.5 °F 30.00 in WSW 7.0 mph 14.0 mph 60% 0.00 in
17:14 58.0 °F 42.8 °F 30.00 in WSW 8.0 mph 16.0 mph 57% 0.00 in
17:19 57.8 °F 43.6 °F 30.00 in SW 8.0 mph 17.0 mph 59% 0.00 in
17:24 57.3 °F 43.5 °F 30.00 in WSW 8.0 mph 17.0 mph 60% 0.00 in
17:29 57.3 °F 43.5 °F 30.00 in WSW 7.0 mph 17.0 mph 60% 0.00 in
17:34 57.4 °F 43.6 °F 30.00 in SW 7.0 mph 11.0 mph 60% 0.00 in
17:39 57.3 °F 43.1 °F 30.00 in WSW 10.0 mph 15.0 mph 59% 0.00 in
17:44 57.0 °F 42.8 °F 30.00 in SW 8.0 mph 17.0 mph 59% 0.00 in
17:49 56.6 °F 42.4 °F 30.00 in WSW 8.0 mph 17.0 mph 59% 0.00 in
17:54 56.4 °F 42.7 °F 30.01 in WSW 9.0 mph 16.0 mph 60% 0.00 in
17:59 56.2 °F 42.5 °F 30.01 in WSW 4.0 mph 14.0 mph 60% 0.00 in
18:04 56.3 °F 43.0 °F 30.01 in West 7.0 mph 14.0 mph 61% 0.00 in
18:09 56.1 °F 42.8 °F 30.01 in WSW 7.0 mph 14.0 mph 61% 0.00 in
18:14 56.2 °F 42.5 °F 30.01 in WSW 7.0 mph 17.0 mph 60% 0.00 in
18:19 55.9 °F 42.2 °F 30.01 in West 6.0 mph 14.0 mph 60% 0.00 in
18:24 55.7 °F 42.0 °F 30.01 in SW 9.0 mph 14.0 mph 60% 0.00 in
18:29 55.7 °F 42.5 °F 30.01 in SW 8.0 mph 13.0 mph 61% 0.00 in
18:34 55.6 °F 42.4 °F 30.01 in WSW 10.0 mph 10.0 mph 61% 0.00 in
18:39 55.5 °F 42.3 °F 30.01 in WSW 6.0 mph 13.0 mph 61% 0.00 in
18:44 55.5 °F 42.3 °F 30.01 in WSW 6.0 mph 13.0 mph 61% 0.00 in
18:49 55.5 °F 42.7 °F 30.01 in WSW 6.0 mph 13.0 mph 62% 0.00 in
18:54 55.6 °F 42.8 °F 30.01 in WSW 5.0 mph 12.0 mph 62% 0.00 in
18:59 55.6 °F 42.8 °F 30.01 in WSW 4.0 mph 11.0 mph 62% 0.00 in
19:04 55.5 °F 42.7 °F 30.01 in WSW 6.0 mph 8.0 mph 62% 0.00 in
19:09 55.5 °F 42.3 °F 30.01 in SSW 8.0 mph 12.0 mph 61% 0.00 in
19:14 55.2 °F 42.4 °F 30.01 in SW 8.0 mph 13.0 mph 62% 0.00 in
19:19 55.0 °F 41.8 °F 30.01 in WSW 11.0 mph 15.0 mph 61% 0.00 in
19:24 54.7 °F 41.9 °F 30.01 in West 6.0 mph 15.0 mph 62% 0.00 in
19:29 54.5 °F 42.2 °F 30.01 in SW 4.0 mph 14.0 mph 63% 0.00 in
19:34 54.2 °F 41.9 °F 30.01 in SW 9.0 mph 15.0 mph 63% 0.00 in
19:39 54.0 °F 41.7 °F 30.01 in SW 7.0 mph 15.0 mph 63% 0.00 in
19:44 53.9 °F 41.6 °F 30.01 in SW 7.0 mph 14.0 mph 63% 0.00 in
19:49 53.7 °F 41.8 °F 30.01 in SW 6.0 mph 13.0 mph 64% 0.00 in
19:54 53.5 °F 41.6 °F 30.01 in WSW 6.0 mph 13.0 mph 64% 0.00 in
19:59 53.3 °F 41.8 °F 30.01 in SSW 10.0 mph 13.0 mph 65% 0.00 in
20:04 53.1 °F 41.6 °F 30.01 in SW 4.0 mph 10.0 mph 65% 0.00 in
20:09 52.9 °F 41.8 °F 30.01 in WSW 6.0 mph 11.0 mph 66% 0.00 in
20:14 52.8 °F 41.7 °F 30.01 in WSW 5.0 mph 10.0 mph 66% 0.00 in
20:19 52.5 °F 41.9 °F 30.01 in SW 6.0 mph 12.0 mph 67% 0.00 in
20:24 52.3 °F 41.7 °F 30.01 in WSW 3.0 mph 11.0 mph 67% 0.00 in
20:29 52.1 °F 41.9 °F 30.01 in WSW 3.0 mph 9.0 mph 68% 0.00 in
20:34 51.9 °F 41.7 °F 30.01 in WSW 2.0 mph 9.0 mph 68% 0.00 in
20:39 51.7 °F 41.9 °F 30.01 in WSW 4.0 mph 12.0 mph 69% 0.00 in
20:44 51.6 °F 41.8 °F 30.02 in WSW 5.0 mph 12.0 mph 69% 0.00 in
20:49 51.4 °F 41.9 °F 30.02 in West 1.0 mph 8.0 mph 70% 0.00 in
20:54 51.3 °F 41.8 °F 30.02 in WSW 5.0 mph 8.0 mph 70% 0.00 in
20:59 51.2 °F 42.1 °F 30.02 in WSW 3.0 mph 8.0 mph 71% 0.00 in
21:04 51.1 °F 42.0 °F 30.02 in WSW 4.0 mph 8.0 mph 71% 0.00 in
21:09 50.9 °F 42.2 °F 30.03 in WSW 4.0 mph 9.0 mph 72% 0.00 in
21:14 50.8 °F 42.1 °F 30.04 in WSW 3.0 mph 9.0 mph 72% 0.00 in
21:19 50.7 °F 42.0 °F 30.03 in West 3.0 mph 8.0 mph 72% 0.00 in
21:24 50.6 °F 42.3 °F 30.04 in WSW 2.0 mph 7.0 mph 73% 0.00 in
21:29 50.5 °F 42.2 °F 30.04 in SW 3.0 mph 7.0 mph 73% 0.00 in
21:34 50.4 °F 42.1 °F 30.03 in WSW 2.0 mph 6.0 mph 73% 0.00 in
21:39 50.3 °F 42.3 °F 30.04 in SW 3.0 mph 7.0 mph 74% 0.00 in
21:44 50.2 °F 42.2 °F 30.03 in WSW 3.0 mph 8.0 mph 74% 0.00 in
21:49 50.1 °F 42.5 °F 30.04 in SW 1.0 mph 7.0 mph 75% 0.00 in
21:54 50.0 °F 42.4 °F 30.03 in SSW 3.0 mph 4.0 mph 75% 0.00 in
21:59 49.8 °F 42.2 °F 30.03 in SW 2.0 mph 4.0 mph 75% 0.00 in
22:04 49.7 °F 42.4 °F 30.03 in SW 2.0 mph 6.0 mph 76% 0.00 in
22:09 49.6 °F 42.3 °F 30.03 in SW 2.0 mph 6.0 mph 76% 0.00 in
22:14 49.4 °F 42.5 °F 30.02 in SW 2.0 mph 6.0 mph 77% 0.00 in
22:19 49.3 °F 42.4 °F 30.02 in SW 2.0 mph 5.0 mph 77% 0.00 in
22:24 49.1 °F 42.2 °F 30.02 in SW 1.0 mph 4.0 mph 77% 0.00 in
22:29 49.0 °F 42.4 °F 30.02 in SSW 1.0 mph 6.0 mph 78% 0.00 in
22:34 48.9 °F 42.3 °F 30.02 in SSW 5.0 mph 5.0 mph 78% 0.00 in
22:39 48.8 °F 42.2 °F 30.03 in SW 1.0 mph 5.0 mph 78% 0.00 in
22:44 48.7 °F 42.1 °F 30.02 in SW 2.0 mph 5.0 mph 78% 0.00 in
22:49 48.7 °F 42.1 °F 30.03 in Calm   5.0 mph 78% 0.00 in
22:54 48.5 °F 42.0 °F 30.02 in SW 2.0 mph 5.0 mph 78% 0.00 in
22:59 48.5 °F 42.3 °F 30.02 in SW 3.0 mph 4.0 mph 79% 0.00 in
23:04 48.4 °F 42.2 °F 30.03 in SW 1.0 mph 4.0 mph 79% 0.00 in
23:09 48.4 °F 42.2 °F 30.03 in SW 2.0 mph 4.0 mph 79% 0.00 in
23:14 48.4 °F 42.2 °F 30.03 in SW 2.0 mph 5.0 mph 79% 0.00 in
23:19 48.4 °F 42.2 °F 30.03 in SW 2.0 mph 5.0 mph 79% 0.00 in
23:24 48.3 °F 42.1 °F 30.03 in SW 1.0 mph 5.0 mph 79% 0.00 in
23:29 48.3 °F 42.1 °F 30.02 in SW 2.0 mph 5.0 mph 79% 0.00 in
23:34 48.3 °F 42.1 °F 30.02 in SW 2.0 mph 5.0 mph 79% 0.00 in
23:39 48.3 °F 42.1 °F 30.02 in SW 2.0 mph 6.0 mph 79% 0.00 in
23:44 48.4 °F 42.2 °F 30.02 in SW 1.0 mph 4.0 mph 79% 0.00 in
23:49 48.5 °F 42.3 °F 30.02 in WSW 4.0 mph 5.0 mph 79% 0.00 in
23:54 48.6 °F 42.4 °F 30.02 in WSW 6.0 mph 7.0 mph 79% 0.00 in
23:59 48.7 °F 42.5 °F 30.02 in SW 1.0 mph 6.0 mph 79% 0.00 in
Buffalo, New York, USA
Compliments of Weather Underground - 2.5 mb